createdAt,value
2019-04-23T00:02:24.537Z,6.80
2019-04-23T00:04:51.237Z,6.70
2019-04-23T00:07:39.752Z,6.60
2019-04-23T00:10:01.171Z,6.50
2019-04-23T00:12:37.429Z,6.30
2019-04-23T00:15:04.378Z,6.30
2019-04-23T00:17:30.433Z,6.20
2019-04-23T00:20:03.389Z,6.20
2019-04-23T00:22:29.058Z,6.20
2019-04-23T00:25:41.090Z,6.20
2019-04-23T00:30:18.832Z,5.90
2019-04-23T00:32:48.069Z,5.80
2019-04-23T00:35:18.173Z,5.80
2019-04-23T00:37:49.571Z,5.80
2019-04-23T00:40:19.039Z,5.70
2019-04-23T00:42:47.738Z,5.70
2019-04-23T00:45:27.235Z,5.70
2019-04-23T00:47:52.753Z,5.60
2019-04-23T00:52:49.927Z,5.50
2019-04-23T00:55:26.475Z,5.50
2019-04-23T01:00:34.142Z,5.40
2019-04-23T01:02:52.867Z,5.40
2019-04-23T01:05:27.651Z,5.40
2019-04-23T01:07:51.537Z,5.40
2019-04-23T01:10:26.840Z,5.40
2019-04-23T01:12:59.714Z,5.40
2019-04-23T01:15:32.830Z,5.40
2019-04-23T01:18:19.091Z,5.30
2019-04-23T01:20:37.324Z,5.30
2019-04-23T01:22:48.801Z,5.40
2019-04-23T01:25:33.778Z,5.30
2019-04-23T01:28:25.338Z,5.30
2019-04-23T01:30:57.125Z,5.30
2019-04-23T01:33:29.975Z,5.20
2019-04-23T01:36:03.200Z,5.10
2019-04-23T01:38:28.569Z,5.10
2019-04-23T01:40:45.886Z,5.10
2019-04-23T01:43:23.802Z,5.00
2019-04-23T01:45:51.477Z,4.90
2019-04-23T01:48:18.538Z,4.80
2019-04-23T01:50:54.958Z,4.70
2019-04-23T01:53:26.808Z,4.60
2019-04-23T01:58:40.271Z,4.60
2019-04-23T02:00:56.334Z,4.50
2019-04-23T02:03:26.924Z,4.60
2019-04-23T02:06:04.882Z,4.60
2019-04-23T02:08:40.147Z,4.60
2019-04-23T02:10:56.304Z,4.50
2019-04-23T02:13:33.864Z,4.60
2019-04-23T02:15:54.921Z,4.50
2019-04-23T02:18:45.536Z,4.40
2019-04-23T02:20:59.524Z,4.40
2019-04-23T02:23:31.248Z,4.50
2019-04-23T02:26:12.941Z,4.50
2019-04-23T02:28:32.875Z,4.50
2019-04-23T02:31:35.811Z,4.40
2019-04-23T02:38:58.105Z,4.40
2019-04-23T02:41:26.731Z,4.30
2019-04-23T02:43:59.197Z,4.30
2019-04-23T02:46:24.495Z,4.30
2019-04-23T02:48:59.865Z,4.30
2019-04-23T02:51:45.945Z,4.20
2019-04-23T03:01:51.763Z,4.40
2019-04-23T03:04:37.321Z,4.40
2019-04-23T03:12:26.601Z,4.40
2019-04-23T03:17:19.068Z,4.30
2019-04-23T03:20:21.461Z,4.40
2019-04-23T03:28:29.668Z,4.30
2019-04-23T03:41:21.350Z,4.40
2019-04-23T03:51:11.437Z,4.30
2019-04-23T03:54:03.929Z,4.30
2019-04-23T03:59:01.229Z,4.30
2019-04-23T04:01:29.309Z,4.30
2019-04-23T04:06:43.223Z,4.30
2019-04-23T04:11:33.427Z,4.30
2019-04-23T04:16:49.187Z,4.40
2019-04-23T04:19:31.974Z,4.50
2019-04-23T04:21:58.537Z,4.50
2019-04-23T04:27:24.510Z,4.50
2019-04-23T04:32:24.653Z,4.60
2019-04-23T04:42:30.768Z,4.80
2019-04-23T04:55:00.111Z,5.40
2019-04-23T05:05:14.386Z,5.90
2019-04-23T05:10:25.834Z,6.10
2019-04-23T05:12:56.399Z,7.60
2019-04-23T05:18:23.893Z,11.10
2019-04-23T05:20:58.501Z,11.60
2019-04-23T05:25:51.428Z,13.60
2019-04-23T05:28:32.982Z,14.50
2019-04-23T05:33:25.374Z,15.60
2019-04-23T05:36:13.112Z,15.90
2019-04-23T05:41:16.983Z,16.90
2019-04-23T05:46:21.255Z,16.70
2019-04-23T05:48:49.169Z,17.10
2019-04-23T05:53:47.179Z,18.00
2019-04-23T05:56:15.241Z,19.30
2019-04-23T05:58:46.848Z,20.00
2019-04-23T06:01:47.282Z,19.90
2019-04-23T06:06:47.140Z,22.10
2019-04-23T06:12:01.383Z,23.80
2019-04-23T06:14:30.773Z,23.40
2019-04-23T06:17:02.124Z,23.90
2019-04-23T06:19:21.075Z,23.70
2019-04-23T06:22:07.405Z,23.10
2019-04-23T06:24:41.439Z,22.90
2019-04-23T06:27:00.653Z,23.30
2019-04-23T06:31:54.059Z,22.80
2019-04-23T06:34:31.174Z,21.20
2019-04-23T06:36:58.882Z,21.70
2019-04-23T06:39:35.978Z,23.40
2019-04-23T06:42:02.113Z,25.20
2019-04-23T06:44:32.174Z,22.70
2019-04-23T06:47:03.250Z,23.60
2019-04-23T06:49:40.423Z,24.70
2019-04-23T06:59:37.238Z,24.90
2019-04-23T07:04:43.420Z,25.40
2019-04-23T07:07:31.560Z,25.00
2019-04-23T07:12:29.768Z,23.90
2019-04-23T07:14:55.442Z,26.10
2019-04-23T07:17:34.291Z,26.50
2019-04-23T07:19:54.834Z,26.10
2019-04-23T07:22:23.582Z,26.00
2019-04-23T07:24:52.886Z,25.30
2019-04-23T07:27:27.729Z,25.90
2019-04-23T07:30:03.949Z,28.00
2019-04-23T07:32:23.726Z,28.40
2019-04-23T07:35:00.933Z,29.10
2019-04-23T07:40:26.367Z,27.90
2019-04-23T07:42:44.610Z,30.60
2019-04-23T07:45:19.348Z,29.90
2019-04-23T07:48:10.983Z,29.60
2019-04-23T07:50:40.801Z,28.90
2019-04-23T07:55:57.152Z,26.00
2019-04-23T08:03:31.289Z,25.80
2019-04-23T08:06:05.900Z,26.90
2019-04-23T08:08:26.542Z,26.30
2019-04-23T08:11:25.612Z,28.20
2019-04-23T08:13:41.658Z,27.40
2019-04-23T08:16:18.350Z,29.50
2019-04-23T08:18:45.342Z,29.60
2019-04-23T08:21:10.664Z,28.00
2019-04-23T08:23:52.169Z,28.40
2019-04-23T08:26:42.136Z,28.40
2019-04-23T08:34:17.146Z,26.00
2019-04-23T08:36:46.256Z,26.40
2019-04-23T08:39:12.464Z,24.80
2019-04-23T08:41:48.366Z,25.10
2019-04-23T08:44:21.627Z,24.00
2019-04-23T08:49:43.615Z,23.60
2019-04-23T08:59:38.918Z,23.70
2019-04-23T09:04:45.601Z,22.20
2019-04-23T09:07:12.812Z,22.50
2019-04-23T09:12:14.864Z,22.90
2019-04-23T09:14:38.283Z,22.50
2019-04-23T09:17:13.021Z,22.40
2019-04-23T09:22:18.786Z,23.10
2019-04-23T09:24:44.888Z,22.60
2019-04-23T09:27:19.378Z,22.50
2019-04-23T09:29:46.034Z,22.60
2019-04-23T09:37:37.300Z,22.70
2019-04-23T09:40:16.737Z,22.90
2019-04-23T09:42:46.362Z,22.00
2019-04-23T09:50:32.974Z,22.00
2019-04-23T09:55:33.395Z,21.60
2019-04-23T10:00:37.998Z,21.80
2019-04-23T10:02:55.535Z,20.40
2019-04-23T10:05:21.771Z,20.30
2019-04-23T10:07:47.050Z,20.30
2019-04-23T10:10:10.166Z,20.60
2019-04-23T10:12:39.929Z,20.50
2019-04-23T10:15:16.394Z,20.00
2019-04-23T10:17:40.312Z,19.40
2019-04-23T10:20:10.837Z,20.30
2019-04-23T10:22:39.649Z,20.80
2019-04-23T10:25:08.983Z,20.10
2019-04-23T10:27:39.054Z,20.40
2019-04-23T10:30:08.254Z,20.40
2019-04-23T10:32:37.798Z,20.60
2019-04-23T10:35:20.535Z,20.10
2019-04-23T10:37:46.780Z,20.80
2019-04-23T10:40:16.974Z,21.10
2019-04-23T10:42:43.239Z,22.00
2019-04-23T10:45:34.945Z,20.70
2019-04-23T10:48:32.780Z,20.70
2019-04-23T10:51:05.216Z,21.30
2019-04-23T10:56:11.358Z,20.40
2019-04-23T10:58:35.425Z,20.20
2019-04-23T11:01:14.911Z,20.60
2019-04-23T11:03:48.691Z,21.30
2019-04-23T11:08:37.038Z,21.50
2019-04-23T11:13:50.301Z,21.50
2019-04-23T11:16:45.902Z,21.00
2019-04-23T11:21:38.583Z,20.60
2019-04-23T11:24:11.087Z,20.90
2019-04-23T11:26:34.503Z,20.80
2019-04-23T11:29:16.286Z,21.10
2019-04-23T11:34:07.455Z,20.90
2019-04-23T11:39:32.601Z,20.70
2019-04-23T11:42:14.295Z,20.90
2019-04-23T11:47:42.526Z,21.30
2019-04-23T11:52:23.732Z,20.60
2019-04-23T11:54:51.363Z,20.70
2019-04-23T11:59:44.221Z,21.30
2019-04-23T12:02:22.047Z,20.40
2019-04-23T12:05:00.851Z,20.90
2019-04-23T12:10:14.428Z,21.00
2019-04-23T12:18:03.361Z,21.50
2019-04-23T12:22:51.771Z,21.30
2019-04-23T12:27:59.638Z,20.70
2019-04-23T12:33:08.543Z,21.00
2019-04-23T12:35:44.078Z,21.30
2019-04-23T12:43:30.691Z,20.30
2019-04-23T12:45:46.899Z,20.20
2019-04-23T12:53:30.584Z,20.20
2019-04-23T12:55:56.462Z,20.50
2019-04-23T12:58:27.023Z,21.10
2019-04-23T13:01:02.158Z,21.00
2019-04-23T13:03:29.917Z,21.30
2019-04-23T13:05:51.195Z,20.70
2019-04-23T13:08:46.055Z,20.30
2019-04-23T13:10:57.709Z,20.90
2019-04-23T13:13:28.035Z,20.40
2019-04-23T13:16:02.548Z,20.40
2019-04-23T13:18:46.979Z,20.30
2019-04-23T13:23:55.039Z,20.60
2019-04-23T13:26:32.099Z,20.60
2019-04-23T13:29:01.431Z,20.80
2019-04-23T13:31:30.843Z,20.30
2019-04-23T13:34:04.705Z,20.30
2019-04-23T13:36:36.238Z,20.30
2019-04-23T13:39:03.278Z,20.00
2019-04-23T13:41:33.357Z,20.10
2019-04-23T13:44:00.109Z,19.90
2019-04-23T13:46:40.968Z,20.10
2019-04-23T13:49:03.130Z,20.10
2019-04-23T13:51:44.237Z,20.40
2019-04-23T13:54:08.213Z,20.30
2019-04-23T13:56:56.244Z,19.70
2019-04-23T14:01:59.712Z,19.50
2019-04-23T14:05:00.103Z,19.40
2019-04-23T14:10:12.693Z,19.40
2019-04-23T14:12:50.745Z,19.40
2019-04-23T14:18:13.271Z,19.00
2019-04-23T14:25:50.729Z,19.00
2019-04-23T14:28:30.792Z,18.70
2019-04-23T14:30:51.055Z,18.70
2019-04-23T14:33:18.553Z,18.80
2019-04-23T14:38:30.269Z,18.70
2019-04-23T14:43:31.448Z,18.40
2019-04-23T14:46:27.134Z,18.40
2019-04-23T14:48:38.642Z,18.30
2019-04-23T14:51:14.898Z,18.30
2019-04-23T14:53:40.109Z,18.20
2019-04-23T14:56:14.812Z,18.10
2019-04-23T15:01:22.368Z,18.10
2019-04-23T15:03:46.290Z,18.00
2019-04-23T15:13:44.676Z,18.00
2019-04-23T15:16:16.405Z,17.90
2019-04-23T15:19:06.747Z,18.00
2019-04-23T15:24:17.556Z,18.20
2019-04-23T15:28:49.074Z,18.00
2019-04-23T15:31:41.231Z,18.10
2019-04-23T15:41:49.540Z,17.70
2019-04-23T15:44:16.193Z,17.70
2019-04-23T15:49:14.746Z,17.60
2019-04-23T15:51:45.108Z,17.60
2019-04-23T16:01:37.188Z,17.20
2019-04-23T16:03:48.802Z,17.10
2019-04-23T16:06:20.366Z,17.20
2019-04-23T16:09:06.452Z,17.10
2019-04-23T16:11:45.391Z,17.00
2019-04-23T16:17:02.132Z,17.00
2019-04-23T16:31:54.661Z,16.60
2019-04-23T16:34:28.870Z,16.50
2019-04-23T16:39:21.979Z,16.30
2019-04-23T16:42:02.237Z,16.30
2019-04-23T16:44:34.971Z,16.30
2019-04-23T16:47:04.538Z,16.30
2019-04-23T16:49:34.770Z,16.30
2019-04-23T16:51:53.914Z,16.20
2019-04-23T16:54:33.151Z,16.10
2019-04-23T16:59:35.385Z,16.00
2019-04-23T17:04:49.955Z,15.90
2019-04-23T17:07:25.616Z,15.80
2019-04-23T17:12:22.601Z,15.70
2019-04-23T17:17:34.558Z,15.60
2019-04-23T17:20:10.226Z,15.50
2019-04-23T17:22:38.680Z,15.50
2019-04-23T17:25:15.700Z,15.40
2019-04-23T17:27:45.029Z,15.30
2019-04-23T17:30:11.540Z,15.40
2019-04-23T17:32:58.522Z,15.40
2019-04-23T17:38:07.749Z,15.20
2019-04-23T17:40:50.189Z,15.10
2019-04-23T17:43:17.860Z,15.00
2019-04-23T17:46:01.201Z,14.90
2019-04-23T17:51:11.429Z,14.70
2019-04-23T17:53:38.268Z,14.70
2019-04-23T17:56:20.047Z,14.60
2019-04-23T18:01:27.863Z,14.40
2019-04-23T18:04:06.521Z,14.30
2019-04-23T18:06:37.303Z,14.30
2019-04-23T18:09:07.616Z,14.10
2019-04-23T18:11:30.034Z,14.10
2019-04-23T18:14:02.597Z,14.00
2019-04-23T18:19:11.578Z,13.80
2019-04-23T18:24:25.477Z,13.60
2019-04-23T18:26:56.880Z,13.50
2019-04-23T18:29:31.562Z,13.40
2019-04-23T18:32:01.112Z,13.20
2019-04-23T18:35:03.999Z,13.10
2019-04-23T18:42:28.624Z,12.70
2019-04-23T18:47:29.334Z,12.50
2019-04-23T18:52:29.588Z,12.20
2019-04-23T18:54:48.213Z,12.30
2019-04-23T18:57:12.680Z,12.30
2019-04-23T19:02:35.433Z,12.20
2019-04-23T19:12:56.957Z,11.90
2019-04-23T19:15:30.811Z,11.90
2019-04-23T19:18:04.178Z,11.80
2019-04-23T19:20:45.283Z,11.60
2019-04-23T19:25:46.766Z,11.60
2019-04-23T19:28:42.625Z,11.60
2019-04-23T19:33:48.991Z,11.40
2019-04-23T19:36:21.382Z,11.30
2019-04-23T19:41:10.765Z,11.10
2019-04-23T19:46:48.012Z,11.10
2019-04-23T19:51:39.764Z,10.90
2019-04-23T19:54:10.954Z,10.80
2019-04-23T19:56:37.237Z,10.70
2019-04-23T20:01:29.595Z,10.40
2019-04-23T20:03:59.182Z,10.30
2019-04-23T20:07:00.144Z,10.10
2019-04-23T20:11:54.706Z,10.30
2019-04-23T20:14:25.203Z,10.20
2019-04-23T20:19:30.068Z,10.10
2019-04-23T20:24:39.687Z,10.00
2019-04-23T20:35:07.017Z,9.60
2019-04-23T20:37:42.311Z,9.50
2019-04-23T20:42:53.326Z,9.50
2019-04-23T20:50:13.637Z,9.50
2019-04-23T20:52:46.861Z,9.50
2019-04-23T20:55:47.060Z,9.40
2019-04-23T21:01:09.261Z,9.50
2019-04-23T21:06:07.069Z,9.20
2019-04-23T21:08:53.739Z,9.30
2019-04-23T21:14:10.942Z,9.20
2019-04-23T21:16:31.013Z,9.40
2019-04-23T21:19:02.562Z,9.40
2019-04-23T21:24:07.222Z,9.20
2019-04-23T21:26:42.323Z,9.20
2019-04-23T21:29:03.910Z,9.20
2019-04-23T21:31:48.600Z,9.20
2019-04-23T21:36:46.386Z,9.30
2019-04-23T21:39:41.387Z,9.00
2019-04-23T21:44:38.424Z,9.00
2019-04-23T21:47:11.320Z,8.80
2019-04-23T21:49:58.008Z,8.70
2019-04-23T21:52:14.530Z,8.60
2019-04-23T21:54:49.165Z,8.50
2019-04-23T21:57:18.015Z,8.40
2019-04-23T21:59:50.458Z,8.40
2019-04-23T22:02:23.255Z,8.20
2019-04-23T22:04:52.059Z,8.20
2019-04-23T22:07:20.811Z,8.00
2019-04-23T22:12:13.538Z,7.80
2019-04-23T22:14:47.012Z,7.70
2019-04-23T22:17:20.216Z,7.60
2019-04-23T22:19:58.550Z,7.60
2019-04-23T22:22:16.236Z,7.60
2019-04-23T22:24:48.241Z,7.60
2019-04-23T22:27:39.658Z,7.50
2019-04-23T22:35:07.957Z,7.00
2019-04-23T22:37:44.174Z,7.00
2019-04-23T22:40:04.732Z,6.90
2019-04-23T22:43:49.042Z,6.90
2019-04-23T22:48:04.876Z,6.80
2019-04-23T22:50:48.489Z,6.70
2019-04-23T22:55:49.761Z,6.30
2019-04-23T22:58:15.331Z,6.10
2019-04-23T23:00:57.761Z,6.00
2019-04-23T23:03:22.745Z,5.90
2019-04-23T23:08:24.020Z,5.90
2019-04-23T23:10:58.949Z,5.80
2019-04-23T23:18:22.712Z,5.70
2019-04-23T23:23:22.636Z,5.60
2019-04-23T23:25:55.437Z,5.60
2019-04-23T23:28:31.597Z,5.50
2019-04-23T23:31:03.961Z,5.60
2019-04-23T23:33:24.676Z,5.60
2019-04-23T23:36:00.140Z,5.50
2019-04-23T23:38:33.569Z,5.40
2019-04-23T23:41:12.626Z,5.40
2019-04-23T23:48:51.293Z,5.40
2019-04-23T23:53:57.340Z,5.40
2019-04-23T23:56:31.683Z,5.40
